sensor_id;sensor_type;location;lat;lon;timestamp;pressure;altitude;pressure_sealevel;temperature;humidity
70206;BME280;57593;55.896;37.396;2022-09-09T00:00:21;100143.50;;;5.71;100.00
70206;BME280;57593;55.896;37.396;2022-09-09T00:02:28;100139.28;;;5.75;100.00
70206;BME280;57593;55.896;37.396;2022-09-09T00:03:18;100132.19;;;5.76;100.00
70206;BME280;57593;55.896;37.396;2022-09-09T00:04:01;100144.81;;;5.74;100.00
70206;BME280;57593;55.896;37.396;2022-09-09T00:04:35;100146.38;;;5.75;100.00
70206;BME280;57593;55.896;37.396;2022-09-09T00:07:03;100148.25;;;5.69;100.00
70206;BME280;57593;55.896;37.396;2022-09-09T00:07:41;100141.69;;;5.72;100.00
70206;BME280;57593;55.896;37.396;2022-09-09T00:08:31;100150.75;;;5.80;100.00
70206;BME280;57593;55.896;37.396;2022-09-09T00:09:12;100145.81;;;5.78;100.00
70206;BME280;57593;55.896;37.396;2022-09-09T00:10:39;100147.63;;;5.78;100.00
70206;BME280;57593;55.896;37.396;2022-09-09T00:11:12;100145.56;;;5.74;100.00
70206;BME280;57593;55.896;37.396;2022-09-09T00:13:11;100133.97;;;5.81;100.00
70206;BME280;57593;55.896;37.396;2022-09-09T00:13:41;100142.84;;;5.85;100.00
70206;BME280;57593;55.896;37.396;2022-09-09T00:14:40;100145.22;;;5.81;100.00
70206;BME280;57593;55.896;37.396;2022-09-09T00:15:19;100146.59;;;5.79;100.00
70206;BME280;57593;55.896;37.396;2022-09-09T00:16:32;100146.38;;;5.75;100.00
70206;BME280;57593;55.896;37.396;2022-09-09T00:17:14;100141.41;;;5.73;100.00
70206;BME280;57593;55.896;37.396;2022-09-09T00:19:35;100142.50;;;5.67;100.00
70206;BME280;57593;55.896;37.396;2022-09-09T00:20:36;100142.50;;;5.67;100.00
70206;BME280;57593;55.896;37.396;2022-09-09T00:21:14;100149.09;;;5.65;100.00
70206;BME280;57593;55.896;37.396;2022-09-09T00:22:07;100158.75;;;5.69;100.00
70206;BME280;57593;55.896;37.396;2022-09-09T00:22:50;100153.44;;;5.74;100.00
70206;BME280;57593;55.896;37.396;2022-09-09T00:23:32;100147.41;;;5.74;100.00
70206;BME280;57593;55.896;37.396;2022-09-09T00:24:50;100150.53;;;5.76;100.00
70206;BME280;57593;55.896;37.396;2022-09-09T00:25:45;100154.59;;;5.63;100.00
70206;BME280;57593;55.896;37.396;2022-09-09T00:28:01;100145.69;;;5.64;100.00
70206;BME280;57593;55.896;37.396;2022-09-09T00:28:38;100160.31;;;5.70;100.00
70206;BME280;57593;55.896;37.396;2022-09-09T00:30:14;100155.28;;;5.74;100.00
70206;BME280;57593;55.896;37.396;2022-09-09T00:30:47;100157.72;;;5.65;100.00
70206;BME280;57593;55.896;37.396;2022-09-09T00:31:26;100155.66;;;5.62;100.00
70206;BME280;57593;55.896;37.396;2022-09-09T00:32:05;100150.13;;;5.64;100.00
70206;BME280;57593;55.896;37.396;2022-09-09T00:32:40;100155.63;;;5.67;100.00
70206;BME280;57593;55.896;37.396;2022-09-09T00:33:12;100158.00;;;5.64;100.00
70206;BME280;57593;55.896;37.396;2022-09-09T00:33:46;100162.59;;;5.48;100.00
70206;BME280;57593;55.896;37.396;2022-09-09T00:34:21;100158.94;;;5.49;100.00
70206;BME280;57593;55.896;37.396;2022-09-09T00:35:42;100160.44;;;5.55;100.00
70206;BME280;57593;55.896;37.396;2022-09-09T00:36:21;100168.84;;;5.52;100.00
70206;BME280;57593;55.896;37.396;2022-09-09T00:36:56;100164.88;;;5.54;100.00
70206;BME280;57593;55.896;37.396;2022-09-09T00:37:28;100165.22;;;5.48;100.00
70206;BME280;57593;55.896;37.396;2022-09-09T00:38:15;100166.81;;;5.44;100.00
70206;BME280;57593;55.896;37.396;2022-09-09T00:39:00;100163.63;;;5.52;100.00
70206;BME280;57593;55.896;37.396;2022-09-09T00:39:59;100164.44;;;5.47;100.00
70206;BME280;57593;55.896;37.396;2022-09-09T00:40:44;100171.78;;;5.45;100.00
70206;BME280;57593;55.896;37.396;2022-09-09T00:42:24;100177.41;;;5.33;100.00
70206;BME280;57593;55.896;37.396;2022-09-09T00:43:29;100168.47;;;5.34;100.00
70206;BME280;57593;55.896;37.396;2022-09-09T00:44:08;100169.00;;;5.31;100.00
70206;BME280;57593;55.896;37.396;2022-09-09T00:44:59;100165.06;;;5.34;100.00
70206;BME280;57593;55.896;37.396;2022-09-09T00:46:55;100178.13;;;5.39;100.00
70206;BME280;57593;55.896;37.396;2022-09-09T00:47:51;100179.41;;;5.42;100.00
70206;BME280;57593;55.896;37.396;2022-09-09T00:49:30;100168.97;;;5.36;100.00
70206;BME280;57593;55.896;37.396;2022-09-09T00:51:34;100176.31;;;5.34;100.00
70206;BME280;57593;55.896;37.396;2022-09-09T00:55:41;100186.44;;;5.46;100.00
70206;BME280;57593;55.896;37.396;2022-09-09T00:56:20;100182.81;;;5.42;100.00
70206;BME280;57593;55.896;37.396;2022-09-09T00:57:03;100178.88;;;5.45;100.00
70206;BME280;57593;55.896;37.396;2022-09-09T00:57:37;100181.25;;;5.41;100.00
70206;BME280;57593;55.896;37.396;2022-09-09T00:58:09;100176.03;;;5.36;100.00
70206;BME280;57593;55.896;37.396;2022-09-09T00:58:50;100170.03;;;5.35;100.00
70206;BME280;57593;55.896;37.396;2022-09-09T00:59:45;100176.84;;;5.36;100.00
70206;BME280;57593;55.896;37.396;2022-09-09T01:01:10;100176.75;;;5.47;100.00
70206;BME280;57593;55.896;37.396;2022-09-09T01:01:42;100181.50;;;5.45;100.00
70206;BME280;57593;55.896;37.396;2022-09-09T01:02:34;100187.78;;;5.44;100.00
70206;BME280;57593;55.896;37.396;2022-09-09T01:03:57;100180.94;;;5.48;100.00
70206;BME280;57593;55.896;37.396;2022-09-09T01:04:34;100188.75;;;5.53;100.00
70206;BME280;57593;55.896;37.396;2022-09-09T01:05:21;100188.31;;;5.40;100.00
70206;BME280;57593;55.896;37.396;2022-09-09T01:06:26;100187.50;;;5.45;100.00
70206;BME280;57593;55.896;37.396;2022-09-09T01:07:11;100180.44;;;5.46;100.00
70206;BME280;57593;55.896;37.396;2022-09-09T01:07:47;100190.38;;;5.49;100.00
70206;BME280;57593;55.896;37.396;2022-09-09T01:09:59;100187.69;;;5.54;100.00
70206;BME280;57593;55.896;37.396;2022-09-09T01:10:51;100187.50;;;5.45;100.00
70206;BME280;57593;55.896;37.396;2022-09-09T01:11:41;100183.06;;;5.46;100.00
70206;BME280;57593;55.896;37.396;2022-09-09T01:12:23;100195.13;;;5.42;100.00
70206;BME280;57593;55.896;37.396;2022-09-09T01:12:58;100187.50;;;5.45;100.00
70206;BME280;57593;55.896;37.396;2022-09-09T01:13:35;100184.94;;;5.40;100.00
70206;BME280;57593;55.896;37.396;2022-09-09T01:15:15;100188.03;;;5.42;100.00
70206;BME280;57593;55.896;37.396;2022-09-09T01:15:53;100189.91;;;5.42;100.00
70206;BME280;57593;55.896;37.396;2022-09-09T01:16:26;100187.81;;;5.38;100.00
70206;BME280;57593;55.896;37.396;2022-09-09T01:17:03;100177.56;;;5.42;100.00
70206;BME280;57593;55.896;37.396;2022-09-09T01:18:23;100190.94;;;5.40;100.00
70206;BME280;57593;55.896;37.396;2022-09-09T01:18:57;100188.09;;;5.37;100.00
70206;BME280;57593;55.896;37.396;2022-09-09T01:20:30;100195.41;;;5.40;100.00
70206;BME280;57593;55.896;37.396;2022-09-09T01:22:04;100187.34;;;5.31;100.00
70206;BME280;57593;55.896;37.396;2022-09-09T01:26:52;100195.69;;;5.38;100.00
70206;BME280;57593;55.896;37.396;2022-09-09T01:27:29;100197.72;;;5.47;100.00
70206;BME280;57593;55.896;37.396;2022-09-09T01:28:05;100195.13;;;5.42;100.00
70206;BME280;57593;55.896;37.396;2022-09-09T01:28:39;100198.03;;;5.40;100.00
70206;BME280;57593;55.896;37.396;2022-09-09T01:29:17;100192.03;;;5.39;100.00
70206;BME280;57593;55.896;37.396;2022-09-09T01:29:48;100192.75;;;5.45;100.00
70206;BME280;57593;55.896;37.396;2022-09-09T01:30:20;100193.59;;;5.35;100.00
70206;BME280;57593;55.896;37.396;2022-09-09T01:30:53;100189.41;;;5.34;100.00
70206;BME280;57593;55.896;37.396;2022-09-09T01:31:31;100196.78;;;5.32;100.00
70206;BME280;57593;55.896;37.396;2022-09-09T01:32:44;100202.28;;;5.31;100.00
70206;BME280;57593;55.896;37.396;2022-09-09T01:33:17;100194.47;;;5.26;100.00
70206;BME280;57593;55.896;37.396;2022-09-09T01:33:49;100188.91;;;5.32;100.00
70206;BME280;57593;55.896;37.396;2022-09-09T01:34:22;100200.69;;;5.35;100.00
70206;BME280;57593;55.896;37.396;2022-09-09T01:34:53;100190.75;;;5.32;100.00
70206;BME280;57593;55.896;37.396;2022-09-09T01:35:43;100198.41;;;5.23;100.00
70206;BME280;57593;55.896;37.396;2022-09-09T01:37:02;100201.31;;;5.21;100.00
70206;BME280;57593;55.896;37.396;2022-09-09T01:37:35;100194.53;;;5.20;100.00
70206;BME280;57593;55.896;37.396;2022-09-09T01:38:06;100200.25;;;5.22;100.00
70206;BME280;57593;55.896;37.396;2022-09-09T01:38:38;100194.75;;;5.24;100.00
70206;BME280;57593;55.896;37.396;2022-09-09T01:39:10;100206.22;;;5.28;100.00
70206;BME280;57593;55.896;37.396;2022-09-09T01:39:43;100204.41;;;5.29;100.00
70206;BME280;57593;55.896;37.396;2022-09-09T01:40:16;100202.34;;;5.26;100.00
70206;BME280;57593;55.896;37.396;2022-09-09T01:40:47;100206.75;;;5.30;100.00
70206;BME280;57593;55.896;37.396;2022-09-09T01:41:19;100202.25;;;5.36;100.00
70206;BME280;57593;55.896;37.396;2022-09-09T01:41:55;100199.63;;;5.36;100.00
70206;BME280;57593;55.896;37.396;2022-09-09T01:42:26;100204.38;;;5.34;100.00
70206;BME280;57593;55.896;37.396;2022-09-09T01:42:57;100197.31;;;5.29;100.00
70206;BME280;57593;55.896;37.396;2022-09-09T01:43:28;100205.19;;;5.29;100.00
70206;BME280;57593;55.896;37.396;2022-09-09T01:44:00;100198.94;;;5.25;100.00
70206;BME280;57593;55.896;37.396;2022-09-09T01:44:34;100202.34;;;5.26;100.00
70206;BME280;57593;55.896;37.396;2022-09-09T01:45:06;100205.72;;;5.26;100.00
70206;BME280;57593;55.896;37.396;2022-09-09T01:45:39;100205.44;;;5.28;100.00
70206;BME280;57593;55.896;37.396;2022-09-09T01:46:12;100204.91;;;5.31;100.00
70206;BME280;57593;55.896;37.396;2022-09-09T01:46:44;100208.06;;;5.28;100.00
70206;BME280;57593;55.896;37.396;2022-09-09T01:47:23;100203.31;;;5.35;100.00
70206;BME280;57593;55.896;37.396;2022-09-09T01:48:22;100215.34;;;5.36;100.00
70206;BME280;57593;55.896;37.396;2022-09-09T01:49:07;100217.22;;;5.30;100.00
70206;BME280;57593;55.896;37.396;2022-09-09T01:49:39;100211.47;;;5.28;100.00
70206;BME280;57593;55.896;37.396;2022-09-09T01:50:18;100217.78;;;5.27;100.00
70206;BME280;57593;55.896;37.396;2022-09-09T01:50:49;100210.97;;;5.26;100.00
70206;BME280;57593;55.896;37.396;2022-09-09T01:51:20;100217.78;;;5.27;100.00
70206;BME280;57593;55.896;37.396;2022-09-09T01:51:54;100220.44;;;5.22;100.00
70206;BME280;57593;55.896;37.396;2022-09-09T01:52:33;100218.88;;;5.21;100.00
70206;BME280;57593;55.896;37.396;2022-09-09T01:53:06;100216.47;;;5.25;100.00
70206;BME280;57593;55.896;37.396;2022-09-09T01:53:39;100213.34;;;5.22;100.00
70206;BME280;57593;55.896;37.396;2022-09-09T01:54:11;100207.34;;;5.22;100.00
70206;BME280;57593;55.896;37.396;2022-09-09T01:54:42;100216.03;;;5.17;100.00
70206;BME280;57593;55.896;37.396;2022-09-09T01:55:30;100214.41;;;5.21;100.00
70206;BME280;57593;55.896;37.396;2022-09-09T01:56:10;100219.91;;;5.20;100.00
70206;BME280;57593;55.896;37.396;2022-09-09T01:57:04;100218.91;;;5.16;100.00
70206;BME280;57593;55.896;37.396;2022-09-09T01:58:04;100217.66;;;5.08;100.00
70206;BME280;57593;55.896;37.396;2022-09-09T01:58:56;100220.50;;;5.12;100.00
70206;BME280;57593;55.896;37.396;2022-09-09T02:00:11;100225.50;;;5.03;100.00
70206;BME280;57593;55.896;37.396;2022-09-09T02:00:23;100228.88;;;5.09;100.00
70206;BME280;57593;55.896;37.396;2022-09-09T02:01:11;100213.72;;;5.06;100.00
70206;BME280;57593;55.896;37.396;2022-09-09T02:03:56;100228.66;;;5.05;100.00
70206;BME280;57593;55.896;37.396;2022-09-09T02:04:44;100222.09;;;5.08;100.00
70206;BME280;57593;55.896;37.396;2022-09-09T02:05:39;100222.56;;;5.15;100.00
70206;BME280;57593;55.896;37.396;2022-09-09T02:06:31;100221.00;;;5.14;100.00
70206;BME280;57593;55.896;37.396;2022-09-09T02:07:41;100225.19;;;5.15;100.00
70206;BME280;57593;55.896;37.396;2022-09-09T02:09:10;100231.00;;;5.07;100.00
70206;BME280;57593;55.896;37.396;2022-09-09T02:09:49;100228.13;;;5.03;100.00
70206;BME280;57593;55.896;37.396;2022-09-09T02:10:29;100226.31;;;5.03;100.00
70206;BME280;57593;55.896;37.396;2022-09-09T02:11:15;100230.47;;;5.10;100.00
70206;BME280;57593;55.896;37.396;2022-09-09T02:12:08;100227.31;;;5.08;100.00
70206;BME280;57593;55.896;37.396;2022-09-09T02:12:52;100230.28;;;4.96;100.00
70206;BME280;57593;55.896;37.396;2022-09-09T02:13:25;100228.72;;;4.95;100.00
70206;BME280;57593;55.896;37.396;2022-09-09T02:14:02;100230.50;;;4.99;100.00
70206;BME280;57593;55.896;37.396;2022-09-09T02:14:39;100226.59;;;4.97;100.00
70206;BME280;57593;55.896;37.396;2022-09-09T02:15:23;100230.50;;;4.99;100.00
70206;BME280;57593;55.896;37.396;2022-09-09T02:16:05;100231.06;;;4.96;100.00
70206;BME280;57593;55.896;37.396;2022-09-09T02:16:42;100223.75;;;4.93;100.00
70206;BME280;57593;55.896;37.396;2022-09-09T02:17:19;100228.47;;;4.91;100.00
70206;BME280;57593;55.896;37.396;2022-09-09T02:18:07;100228.44;;;4.96;100.00
70206;BME280;57593;55.896;37.396;2022-09-09T02:18:49;100231.28;;;5.00;100.00
70206;BME280;57593;55.896;37.396;2022-09-09T02:19:27;100231.31;;;4.95;100.00
70206;BME280;57593;55.896;37.396;2022-09-09T02:20:14;100227.41;;;4.97;100.00
70206;BME280;57593;55.896;37.396;2022-09-09T02:21:12;100227.41;;;4.97;100.00
70206;BME280;57593;55.896;37.396;2022-09-09T02:21:44;100226.09;;;4.95;100.00
70206;BME280;57593;55.896;37.396;2022-09-09T02:22:17;100230.28;;;4.96;100.00
70206;BME280;57593;55.896;37.396;2022-09-09T02:22:50;100235.25;;;4.97;100.00
70206;BME280;57593;55.896;37.396;2022-09-09T02:23:24;100242.56;;;4.95;100.00
70206;BME280;57593;55.896;37.396;2022-09-09T02:24:00;100235.78;;;4.89;100.00
70206;BME280;57593;55.896;37.396;2022-09-09T02:24:39;100232.13;;;4.90;100.00
70206;BME280;57593;55.896;37.396;2022-09-09T02:25:23;100234.53;;;4.86;100.00
70206;BME280;57593;55.896;37.396;2022-09-09T02:25:58;100232.66;;;4.87;100.00
70206;BME280;57593;55.896;37.396;2022-09-09T02:26:31;100235.53;;;4.91;100.00
70206;BME280;57593;55.896;37.396;2022-09-09T02:27:09;100225.31;;;4.94;100.00
70206;BME280;57593;55.896;37.396;2022-09-09T02:27:41;100235.78;;;4.89;100.00
70206;BME280;57593;55.896;37.396;2022-09-09T02:28:15;100231.88;;;4.92;100.00
70206;BME280;57593;55.896;37.396;2022-09-09T02:28:48;100239.72;;;4.92;100.00
70206;BME280;57593;55.896;37.396;2022-09-09T02:29:27;100237.59;;;4.94;100.00
70206;BME280;57593;55.896;37.396;2022-09-09T02:30:00;100241.03;;;4.89;100.00
70206;BME280;57593;55.896;37.396;2022-09-09T02:30:48;100236.59;;;4.84;100.00
70206;BME280;57593;55.896;37.396;2022-09-09T02:31:26;100243.72;;;4.79;100.00
70206;BME280;57593;55.896;37.396;2022-09-09T02:32:06;100236.41;;;4.76;100.00
70206;BME280;57593;55.896;37.396;2022-09-09T02:32:42;100240.31;;;4.73;100.00
70206;BME280;57593;55.896;37.396;2022-09-09T02:33:17;100238.78;;;4.72;100.00
70206;BME280;57593;55.896;37.396;2022-09-09T02:33:55;100237.97;;;4.72;100.00
70206;BME280;57593;55.896;37.396;2022-09-09T02:34:28;100240.06;;;4.75;100.00
70206;BME280;57593;55.896;37.396;2022-09-09T02:35:14;100242.16;;;4.73;100.00
70206;BME280;57593;55.896;37.396;2022-09-09T02:35:46;100234.84;;;4.70;100.00
70206;BME280;57593;55.896;37.396;2022-09-09T02:36:23;100232.78;;;4.66;100.00
70206;BME280;57593;55.896;37.396;2022-09-09T02:36:55;100235.94;;;4.63;100.00
70206;BME280;57593;55.896;37.396;2022-09-09T02:37:33;100246.91;;;4.65;100.00
70206;BME280;57593;55.896;37.396;2022-09-09T02:38:08;100245.88;;;4.61;100.00
70206;BME280;57593;55.896;37.396;2022-09-09T02:38:46;100249.78;;;4.64;100.00
70206;BME280;57593;55.896;37.396;2022-09-09T02:39:25;100243.00;;;4.63;100.00
70206;BME280;57593;55.896;37.396;2022-09-09T02:39:56;100245.09;;;4.66;100.00
70206;BME280;57593;55.896;37.396;2022-09-09T02:40:28;100247.97;;;4.64;100.00
70206;BME280;57593;55.896;37.396;2022-09-09T02:41:04;100251.13;;;4.61;100.00
70206;BME280;57593;55.896;37.396;2022-09-09T02:41:37;100245.34;;;4.64;100.00
70206;BME280;57593;55.896;37.396;2022-09-09T02:42:07;100243.28;;;4.61;100.00
70206;BME280;57593;55.896;37.396;2022-09-09T02:42:40;100255.31;;;4.57;100.00
70206;BME280;57593;55.896;37.396;2022-09-09T02:43:11;100255.56;;;4.61;100.00
70206;BME280;57593;55.896;37.396;2022-09-09T02:43:45;100241.47;;;4.57;100.00
70206;BME280;57593;55.896;37.396;2022-09-09T02:44:18;100250.06;;;4.57;100.00
70206;BME280;57593;55.896;37.396;2022-09-09T02:44:52;100248.25;;;4.63;100.00
70206;BME280;57593;55.896;37.396;2022-09-09T02:45:27;100251.66;;;4.53;100.00
70206;BME280;57593;55.896;37.396;2022-09-09T02:49:01;100248.53;;;4.51;100.00
70206;BME280;57593;55.896;37.396;2022-09-09T02:50:05;100254.06;;;4.44;100.00
70206;BME280;57593;55.896;37.396;2022-09-09T02:51:08;100260.84;;;4.40;100.00
70206;BME280;57593;55.896;37.396;2022-09-09T02:52:01;100261.66;;;4.36;100.00
70206;BME280;57593;55.896;37.396;2022-09-09T02:53:41;100270.53;;;4.35;100.00
70206;BME280;57593;55.896;37.396;2022-09-09T02:54:59;100273.97;;;4.35;100.00
70206;BME280;57593;55.896;37.396;2022-09-09T02:55:47;100267.69;;;4.31;100.00
70206;BME280;57593;55.896;37.396;2022-09-09T02:56:21;100266.63;;;4.27;100.00
70206;BME280;57593;55.896;37.396;2022-09-09T02:56:55;100260.13;;;4.24;100.00
70206;BME280;57593;55.896;37.396;2022-09-09T02:57:34;100265.59;;;4.28;100.00
70206;BME280;57593;55.896;37.396;2022-09-09T02:58:08;100260.34;;;4.33;100.00
70206;BME280;57593;55.896;37.396;2022-09-09T02:58:42;100272.63;;;4.32;100.00
70206;BME280;57593;55.896;37.396;2022-09-09T02:59:12;100269.25;;;4.27;100.00
70206;BME280;57593;55.896;37.396;2022-09-09T02:59:44;100265.84;;;4.26;100.00
70206;BME280;57593;55.896;37.396;2022-09-09T03:00:23;100262.47;;;4.26;100.00
70206;BME280;57593;55.896;37.396;2022-09-09T03:00:55;100272.66;;;4.22;100.00
70206;BME280;57593;55.896;37.396;2022-09-09T03:01:28;100267.41;;;4.22;100.00
70206;BME280;57593;55.896;37.396;2022-09-09T03:01:59;100269.00;;;4.23;100.00
70206;BME280;57593;55.896;37.396;2022-09-09T03:02:31;100263.25;;;4.26;100.00
70206;BME280;57593;55.896;37.396;2022-09-09T03:03:09;100267.16;;;4.24;100.00
70206;BME280;57593;55.896;37.396;2022-09-09T03:03:40;100268.50;;;4.21;100.00
70206;BME280;57593;55.896;37.396;2022-09-09T03:04:16;100271.34;;;4.30;100.00
70206;BME280;57593;55.896;37.396;2022-09-09T03:04:47;100268.44;;;4.31;100.00
70206;BME280;57593;55.896;37.396;2022-09-09T03:05:22;100270.56;;;4.29;100.00
70206;BME280;57593;55.896;37.396;2022-09-09T03:05:54;100273.44;;;4.28;100.00
70206;BME280;57593;55.896;37.396;2022-09-09T03:06:24;100270.84;;;4.23;100.00
70206;BME280;57593;55.896;37.396;2022-09-09T03:07:05;100265.84;;;4.26;100.00
70206;BME280;57593;55.896;37.396;2022-09-09T03:07:35;100266.91;;;4.30;100.00
70206;BME280;57593;55.896;37.396;2022-09-09T03:08:06;100272.63;;;4.32;100.00
70206;BME280;57593;55.896;37.396;2022-09-09T03:08:37;100272.41;;;4.29;100.00
70206;BME280;57593;55.896;37.396;2022-09-09T03:09:08;100272.13;;;4.30;100.00
70206;BME280;57593;55.896;37.396;2022-09-09T03:09:40;100261.16;;;4.34;100.00
70206;BME280;57593;55.896;37.396;2022-09-09T03:10:12;100268.19;;;4.33;100.00
70206;BME280;57593;55.896;37.396;2022-09-09T03:10:43;100266.38;;;4.34;100.00
70206;BME280;57593;55.896;37.396;2022-09-09T03:11:16;100266.88;;;4.36;100.00
70206;BME280;57593;55.896;37.396;2022-09-09T03:11:47;100264.25;;;4.41;100.00
70206;BME280;57593;55.896;37.396;2022-09-09T03:12:20;100268.69;;;4.40;100.00
70206;BME280;57593;55.896;37.396;2022-09-09T03:12:51;100266.88;;;4.36;100.00
70206;BME280;57593;55.896;37.396;2022-09-09T03:13:22;100277.06;;;4.37;100.00
70206;BME280;57593;55.896;37.396;2022-09-09T03:13:54;100275.78;;;4.40;100.00
70206;BME280;57593;55.896;37.396;2022-09-09T03:14:27;100275.25;;;4.43;100.00
70206;BME280;57593;55.896;37.396;2022-09-09T03:14:58;100273.91;;;4.45;100.00
70206;BME280;57593;55.896;37.396;2022-09-09T03:15:29;100280.22;;;4.34;100.00
70206;BME280;57593;55.896;37.396;2022-09-09T03:16:01;100276.81;;;4.28;100.00
70206;BME280;57593;55.896;37.396;2022-09-09T03:16:37;100274.75;;;4.30;100.00
70206;BME280;57593;55.896;37.396;2022-09-09T03:17:08;100272.41;;;4.29;100.00
70206;BME280;57593;55.896;37.396;2022-09-09T03:17:44;100274.47;;;4.32;100.00
70206;BME280;57593;55.896;37.396;2022-09-09T03:18:15;100275.25;;;4.32;100.00
70206;BME280;57593;55.896;37.396;2022-09-09T03:18:46;100274.22;;;4.34;100.00
70206;BME280;57593;55.896;37.396;2022-09-09T03:19:17;100271.88;;;4.32;100.00
70206;BME280;57593;55.896;37.396;2022-09-09T03:19:49;100276.84;;;4.34;100.00
70206;BME280;57593;55.896;37.396;2022-09-09T03:20:20;100278.38;;;4.35;100.00
70206;BME280;57593;55.896;37.396;2022-09-09T03:20:51;100274.47;;;4.37;100.00
70206;BME280;57593;55.896;37.396;2022-09-09T03:21:24;100272.88;;;4.36;100.00
70206;BME280;57593;55.896;37.396;2022-09-09T03:21:55;100272.63;;;4.38;100.00
70206;BME280;57593;55.896;37.396;2022-09-09T03:22:27;100285.16;;;4.41;100.00
70206;BME280;57593;55.896;37.396;2022-09-09T03:22:59;100277.31;;;4.41;100.00
70206;BME280;57593;55.896;37.396;2022-09-09T03:23:30;100283.34;;;4.36;100.00
70206;BME280;57593;55.896;37.396;2022-09-09T03:24:05;100280.72;;;4.36;100.00
70206;BME280;57593;55.896;37.396;2022-09-09T03:24:37;100286.75;;;4.37;100.00
70206;BME280;57593;55.896;37.396;2022-09-09T03:25:08;100283.88;;;4.33;100.00
70206;BME280;57593;55.896;37.396;2022-09-09T03:25:46;100287.81;;;4.30;100.00
70206;BME280;57593;55.896;37.396;2022-09-09T03:26:17;100287.03;;;4.30;100.00
70206;BME280;57593;55.896;37.396;2022-09-09T03:26:50;100287.56;;;4.27;100.00
70206;BME280;57593;55.896;37.396;2022-09-09T03:27:21;100285.72;;;4.32;100.00
70206;BME280;57593;55.896;37.396;2022-09-09T03:27:53;100283.59;;;4.35;100.00
70206;BME280;57593;55.896;37.396;2022-09-09T03:28:25;100281.53;;;4.37;100.00
70206;BME280;57593;55.896;37.396;2022-09-09T03:29:02;100287.53;;;4.37;100.00
70206;BME280;57593;55.896;37.396;2022-09-09T03:29:34;100283.88;;;4.38;100.00
70206;BME280;57593;55.896;37.396;2022-09-09T03:30:07;100284.66;;;4.39;100.00
70206;BME280;57593;55.896;37.396;2022-09-09T03:30:38;100288.56;;;4.36;100.00
70206;BME280;57593;55.896;37.396;2022-09-09T03:31:09;100289.66;;;4.35;100.00
70206;BME280;57593;55.896;37.396;2022-09-09T03:31:43;100283.09;;;4.43;100.00
70206;BME280;57593;55.896;37.396;2022-09-09T03:32:13;100290.94;;;4.38;100.00
70206;BME280;57593;55.896;37.396;2022-09-09T03:32:48;100293.31;;;4.34;100.00
70206;BME280;57593;55.896;37.396;2022-09-09T03:33:18;100295.13;;;4.28;100.00
70206;BME280;57593;55.896;37.396;2022-09-09T03:33:50;100287.81;;;4.30;100.00
70206;BME280;57593;55.896;37.396;2022-09-09T03:34:22;100296.69;;;4.35;100.00
70206;BME280;57593;55.896;37.396;2022-09-09T03:34:53;100294.34;;;4.33;100.00
70206;BME280;57593;55.896;37.396;2022-09-09T03:35:24;100298.53;;;4.34;100.00
70206;BME280;57593;55.896;37.396;2022-09-09T03:35:55;100300.38;;;4.34;100.00
70206;BME280;57593;55.896;37.396;2022-09-09T03:36:27;100298.53;;;4.34;100.00
70206;BME280;57593;55.896;37.396;2022-09-09T03:36:58;100292.25;;;4.30;100.00
70206;BME280;57593;55.896;37.396;2022-09-09T03:37:30;100294.88;;;4.35;100.00
70206;BME280;57593;55.896;37.396;2022-09-09T03:38:02;100302.47;;;4.37;100.00
70206;BME280;57593;55.896;37.396;2022-09-09T03:38:35;100299.84;;;4.31;100.00
70206;BME280;57593;55.896;37.396;2022-09-09T03:39:07;100305.59;;;4.39;100.00
70206;BME280;57593;55.896;37.396;2022-09-09T03:39:37;100297.75;;;4.39;100.00
70206;BME280;57593;55.896;37.396;2022-09-09T03:40:09;100300.34;;;4.39;100.00
70206;BME280;57593;55.896;37.396;2022-09-09T03:40:50;100302.94;;;4.44;100.00
70206;BME280;57593;55.896;37.396;2022-09-09T03:41:22;100297.72;;;4.49;100.00
70206;BME280;57593;55.896;37.396;2022-09-09T03:41:54;100300.34;;;4.49;100.00
70206;BME280;57593;55.896;37.396;2022-09-09T03:42:25;100304.25;;;4.57;100.00
70206;BME280;57593;55.896;37.396;2022-09-09T03:42:59;100304.25;;;4.57;100.00
70206;BME280;57593;55.896;37.396;2022-09-09T03:43:30;100302.91;;;4.59;100.00
70206;BME280;57593;55.896;37.396;2022-09-09T03:44:02;100304.50;;;4.55;100.00
70206;BME280;57593;55.896;37.396;2022-09-09T03:44:38;100301.34;;;4.53;100.00
70206;BME280;57593;55.896;37.396;2022-09-09T03:45:10;100303.19;;;4.58;100.00
70206;BME280;57593;55.896;37.396;2022-09-09T03:45:46;100301.09;;;4.60;100.00
70206;BME280;57593;55.896;37.396;2022-09-09T03:46:23;100302.16;;;4.54;100.00
70206;BME280;57593;55.896;37.396;2022-09-09T03:46:55;100291.16;;;4.57;100.00
70206;BME280;57593;55.896;37.396;2022-09-09T03:47:25;100292.19;;;4.61;100.00
70206;BME280;57593;55.896;37.396;2022-09-09T03:48:01;100301.88;;;4.60;100.00
70206;BME280;57593;55.896;37.396;2022-09-09T03:48:34;100301.34;;;4.53;100.00
70206;BME280;57593;55.896;37.396;2022-09-09T03:49:05;100294.31;;;4.48;100.00
70206;BME280;57593;55.896;37.396;2022-09-09T03:49:36;100293.00;;;4.51;100.00
70206;BME280;57593;55.896;37.396;2022-09-09T03:50:08;100305.03;;;4.52;100.00
70206;BME280;57593;55.896;37.396;2022-09-09T03:50:51;100304.50;;;4.55;100.00
70206;BME280;57593;55.896;37.396;2022-09-09T03:51:22;100301.13;;;4.49;100.00
70206;BME280;57593;55.896;37.396;2022-09-09T03:51:52;100291.97;;;4.52;100.00